Terminal Aerodrome Forecast
Issued by NWS

Home | Current Version | Previous Version | Graphics & Text | Print | Product List | Glossary On
Versions: 1 2 3 4 5 6 7 8 9 10 11 12 13 14 15
000
FTUS43 KUNR 251100
TAFGCC
TAF
KGCC 251120Z 2512/2612 31006KT P6SM SCT015 BKN120
     FM251600 35009KT P6SM SCT035 BKN120
     FM252100 06007KT P6SM SCT035 BKN080
     FM260400 16007KT P6SM SCT015 BKN035=

USA.gov is the U.S. government's official web portal to all federal, state and local government web resources and services.